»·PEaware :: N516DM KSAC-KMOD

N516DM :: KSAC-KMOD

FLIGHT INFORMATION

Flight Status: Arrived
Operator: Privately registered:
United States
More flights under this callsign
Pilot: Chase G. (14174)
Aircraft: CESSNA 182 SKYLANE
(C182)
More flights by this aircraft type
Origin: KSAC Sacramento Executive
United States
Destination: KMOD Modesto City-Co-Sham
United States
More flights between these airports :: More routes between these airports
Route: SAC V23 LIN V113 MOD
File this flight plan on PilotEdge
Remarks:
Altitude:
(Current/Filed)
7,000ft
Speed:
(Current/Filed)
130kts
Departed: 01-Jul-18 03:55 PM
Arrived: 01-Jul-18 04:36 PM
Distance/Time
Traveled:
59nm/0:40
Distance/Time
To Go:
Arrived

Flight Plot

Page will automatically refresh every two minutes.

Flight plan parsing failed; only flown route is shown


Map Options




Map Legend


Flown Route
Filed Route
Departure Airport
Arrival Airport
Navaid (VOR, NDB)
Fix

Horizontal Profiles

Position Reports

Time Latitude Longitude Heading Altitude Ground
Speed
01-Jul-18 15:37 38.515948 -121.495757 43 27ft 0kts
01-Jul-18 15:38 38.515948 -121.495757 43 27ft 0kts
01-Jul-18 15:39 38.515948 -121.495757 43 27ft 0kts
01-Jul-18 15:40 38.515950 -121.495754 43 27ft 0kts
01-Jul-18 15:41 38.515953 -121.495751 43 27ft 0kts
01-Jul-18 15:42 38.515955 -121.495749 43 27ft 0kts
01-Jul-18 15:43 38.515957 -121.495746 43 27ft 0kts
01-Jul-18 15:44 38.515959 -121.495743 43 27ft 0kts
01-Jul-18 15:45 38.515961 -121.495741 43 27ft 0kts
01-Jul-18 15:46 38.515963 -121.495738 43 27ft 0kts
01-Jul-18 15:47 38.515966 -121.495735 43 27ft 0kts
01-Jul-18 15:48 38.515968 -121.495732 43 27ft 0kts
01-Jul-18 15:49 38.514821 -121.495871 204 27ft 8kts
01-Jul-18 15:50 38.513931 -121.495360 31 27ft 9kts
01-Jul-18 15:51 38.516732 -121.493031 33 27ft 14kts
01-Jul-18 15:52 38.520726 -121.489709 33 27ft 13kts
01-Jul-18 15:53 38.520922 -121.489155 96 27ft 0kts
01-Jul-18 15:54 38.520600 -121.487995 169 27ft 7kts
01-Jul-18 15:55 38.506651 -121.499542 202 550ft 87kts
01-Jul-18 15:56 38.481619 -121.494209 164 1624ft 96kts
01-Jul-18 15:57 38.456187 -121.481643 157 2749ft 99kts
01-Jul-18 15:58 38.435315 -121.457679 135 3752ft 105kts
01-Jul-18 15:59 38.415949 -121.431200 131 4683ft 100kts
01-Jul-18 16:00 38.396146 -121.403705 131 5396ft 107kts
01-Jul-18 16:01 38.375933 -121.375416 131 6104ft 107kts
01-Jul-18 16:02 38.356141 -121.347579 131 6791ft 103kts
01-Jul-18 16:03 38.334819 -121.317321 131 7012ft 132kts
01-Jul-18 16:04 38.308217 -121.280961 133 7005ft 144kts
01-Jul-18 16:05 38.279851 -121.244598 136 7023ft 145kts
01-Jul-18 16:06 38.250653 -121.208428 136 7028ft 146kts
01-Jul-18 16:07 38.221257 -121.171831 136 7028ft 152kts
01-Jul-18 16:08 38.190667 -121.135325 139 7028ft 147kts
01-Jul-18 16:09 38.160188 -121.100947 139 7028ft 146kts
01-Jul-18 16:10 38.129506 -121.066247 139 7031ft 152kts
01-Jul-18 16:11 38.097764 -121.030874 142 7027ft 149kts
01-Jul-18 16:12 38.064648 -121.000467 169 7018ft 146kts
01-Jul-18 16:13 38.024235 -120.994558 179 7025ft 146kts
01-Jul-18 16:14 37.983632 -120.992400 178 7022ft 147kts
01-Jul-18 16:15 37.942254 -120.990462 178 7021ft 150kts
01-Jul-18 16:16 37.900243 -120.986756 175 7019ft 151kts
01-Jul-18 16:17 37.857530 -120.982411 175 6789ft 163kts
01-Jul-18 16:18 37.812171 -120.977693 175 6067ft 160kts
01-Jul-18 16:19 37.767672 -120.972877 175 5363ft 160kts
01-Jul-18 16:20 37.728895 -120.956937 114 4631ft 153kts
01-Jul-18 16:22 37.713125 -120.907728 112 4008ft 145kts
01-Jul-18 16:23 37.696383 -120.862475 122 3852ft 150kts
01-Jul-18 16:24 37.674948 -120.817092 122 3251ft 148kts
01-Jul-18 16:25 37.654010 -120.771905 121 2654ft 151kts
01-Jul-18 16:26 37.632891 -120.726160 121 2145ft 153kts
01-Jul-18 16:27 37.604107 -120.703598 211 2015ft 126kts
01-Jul-18 16:28 37.573371 -120.723195 209 2004ft 119kts
01-Jul-18 16:29 37.544036 -120.741472 209 2012ft 117kts
01-Jul-18 16:30 37.535106 -120.776866 270 2003ft 110kts
01-Jul-18 16:31 37.547128 -120.811064 308 2018ft 109kts
01-Jul-18 16:32 37.565942 -120.839761 300 2027ft 101kts
01-Jul-18 16:33 37.581106 -120.870138 300 1710ft 100kts
01-Jul-18 16:34 37.597360 -120.898502 304 939ft 98kts
01-Jul-18 16:35 37.608988 -120.921538 303 565ft 67kts
01-Jul-18 16:36 37.619034 -120.940233 304 197ft 55kts
01-Jul-18 16:37 37.623634 -120.948713 304 100ft 8kts
01-Jul-18 16:38 37.625482 -120.950336 303 100ft 10kts

Navigation Log

Ident Type
Flight plan parsing failed, navigation log unavailable